Time,TemperatureF,DewpointF,PressureIn,WindDirection,WindDirectionDegrees,WindSpeedMPH,WindSpeedGustMPH,Humidity,HourlyPrecipIn,Conditions,Clouds,dailyrainin,SoftwareType,DateUTC
2013-10-18 00:00:00,71.3,67.2,29.93,ENE,67,0.0,0.0,87,0.00,,---,0.00,VWS V14.01,2013-10-18 04:00:00,
2013-10-18 00:01:00,71.2,67.1,29.93,ENE,67,0.0,0.0,87,0.00,,---,0.00,VWS V14.01,2013-10-18 04:01:00,
2013-10-18 00:02:00,71.2,67.1,29.93,ENE,67,0.0,0.0,87,0.00,,---,0.00,VWS V14.01,2013-10-18 04:02:00,
2013-10-18 00:07:00,71.0,66.9,29.93,ENE,67,0.0,0.0,87,0.00,,---,0.00,VWS V14.01,2013-10-18 04:07:00,
2013-10-18 00:10:00,71.1,67.0,29.93,ENE,67,0.0,0.0,87,0.00,,---,0.00,VWS V14.01,2013-10-18 04:10:00,
2013-10-18 00:12:00,71.0,66.9,29.93,ENE,67,0.0,0.0,87,0.00,,---,0.00,VWS V14.01,2013-10-18 04:12:00,
2013-10-18 00:17:00,70.9,66.8,29.93,ENE,67,0.0,0.0,87,0.00,,---,0.00,VWS V14.01,2013-10-18 04:17:00,
2013-10-18 00:20:00,70.9,66.8,29.93,ENE,67,0.0,0.0,87,0.00,,---,0.00,VWS V14.01,2013-10-18 04:20:00,
2013-10-18 00:22:00,70.8,66.7,29.93,ENE,67,0.0,0.0,87,0.00,,---,0.00,VWS V14.01,2013-10-18 04:22:00,
2013-10-18 00:27:00,70.7,66.7,29.92,ENE,67,0.0,0.0,87,0.00,,---,0.00,VWS V14.01,2013-10-18 04:27:00,
2013-10-18 00:30:00,70.7,66.7,29.92,ENE,67,0.0,0.0,87,0.00,,---,0.00,VWS V14.01,2013-10-18 04:30:00,
2013-10-18 00:32:00,70.7,66.7,29.92,ENE,67,0.0,0.0,87,0.00,,---,0.00,VWS V14.01,2013-10-18 04:32:00,
2013-10-18 00:37:00,70.7,66.7,29.92,ENE,67,0.0,0.0,87,0.00,,---,0.00,VWS V14.01,2013-10-18 04:37:00,
2013-10-18 00:40:00,70.7,66.7,29.92,ENE,67,0.0,0.0,87,0.00,,---,0.00,VWS V14.01,2013-10-18 04:40:00,
2013-10-18 00:42:00,70.6,66.6,29.92,ENE,67,0.0,0.0,87,0.00,,---,0.00,VWS V14.01,2013-10-18 04:42:00,
2013-10-18 00:47:00,70.5,66.4,29.92,ENE,67,0.0,0.0,87,0.00,,---,0.00,VWS V14.01,2013-10-18 04:47:00,
2013-10-18 00:50:00,70.5,66.4,29.92,ENE,67,0.0,0.0,87,0.00,,---,0.00,VWS V14.01,2013-10-18 04:50:00,
2013-10-18 00:52:00,70.3,66.2,29.92,ENE,67,0.0,0.0,87,0.00,,---,0.00,VWS V14.01,2013-10-18 04:52:00,
2013-10-18 00:57:00,70.2,66.2,29.92,ENE,67,0.0,0.0,87,0.00,,---,0.00,VWS V14.01,2013-10-18 04:57:00,
2013-10-18 01:00:00,70.2,66.2,29.92,ENE,67,0.0,0.0,87,0.00,,---,0.00,VWS V14.01,2013-10-18 05:00:00,
2013-10-18 01:02:00,70.2,66.2,29.92,ENE,67,0.0,0.0,87,0.00,,---,0.00,VWS V14.01,2013-10-18 05:02:00,
2013-10-18 01:07:00,70.2,66.2,29.92,ENE,67,0.0,0.0,87,0.00,,---,0.00,VWS V14.01,2013-10-18 05:07:00,
2013-10-18 01:10:00,70.2,66.2,29.92,ENE,67,0.0,0.0,87,0.00,,---,0.00,VWS V14.01,2013-10-18 05:10:00,
2013-10-18 01:12:00,70.2,66.2,29.92,ENE,67,0.0,0.0,87,0.00,,---,0.00,VWS V14.01,2013-10-18 05:12:00,
2013-10-18 01:17:00,70.1,66.1,29.92,ENE,67,0.0,0.0,87,0.00,,---,0.00,VWS V14.01,2013-10-18 05:17:00,
2013-10-18 01:20:00,70.1,66.1,29.92,ENE,67,0.0,0.0,87,0.00,,---,0.00,VWS V14.01,2013-10-18 05:20:00,
2013-10-18 01:22:00,70.1,66.1,29.92,ENE,67,0.0,0.0,87,0.00,,---,0.00,VWS V14.01,2013-10-18 05:22:00,
2013-10-18 01:27:00,70.0,66.0,29.92,ENE,67,0.0,0.0,87,0.00,,---,0.00,VWS V14.01,2013-10-18 05:27:00,
2013-10-18 01:30:00,70.0,66.0,29.92,ENE,67,0.0,0.0,87,0.00,,---,0.00,VWS V14.01,2013-10-18 05:30:00,
2013-10-18 01:32:00,70.0,66.0,29.92,ENE,67,0.0,0.0,87,0.00,,---,0.00,VWS V14.01,2013-10-18 05:32:00,
2013-10-18 01:37:00,70.0,66.0,29.92,ENE,66,0.0,0.0,87,0.00,,---,0.00,VWS V14.01,2013-10-18 05:37:00,
2013-10-18 01:40:00,70.1,66.1,29.92,ENE,67,0.0,0.0,87,0.00,,---,0.00,VWS V14.01,2013-10-18 05:40:00,
2013-10-18 01:42:00,70.2,66.2,29.92,ENE,67,0.0,0.0,87,0.00,,---,0.00,VWS V14.01,2013-10-18 05:42:00,
2013-10-18 01:47:00,70.4,66.3,29.92,ENE,67,0.0,0.0,87,0.00,,---,0.00,VWS V14.01,2013-10-18 05:47:00,
2013-10-18 01:50:00,70.4,66.3,29.92,ENE,67,0.0,0.0,87,0.00,,---,0.00,VWS V14.01,2013-10-18 05:50:00,
2013-10-18 01:52:00,70.7,66.7,29.92,ENE,67,0.0,0.0,87,0.00,,---,0.00,VWS V14.01,2013-10-18 05:52:00,
2013-10-18 01:57:00,70.9,66.8,29.92,ENE,67,0.0,0.0,87,0.00,,---,0.00,VWS V14.01,2013-10-18 05:57:00,
2013-10-18 02:00:00,70.9,66.8,29.92,ENE,67,0.0,0.0,87,0.00,,---,0.00,VWS V14.01,2013-10-18 06:00:00,
2013-10-18 02:02:00,71.0,66.9,29.92,ENE,67,0.0,0.0,87,0.00,,---,0.00,VWS V14.01,2013-10-18 06:02:00,
2013-10-18 02:08:00,71.1,67.0,29.92,ENE,67,0.0,0.0,87,0.00,,---,0.00,VWS V14.01,2013-10-18 06:08:00,
2013-10-18 02:10:00,71.1,67.0,29.92,ENE,67,0.0,0.0,87,0.00,,---,0.00,VWS V14.01,2013-10-18 06:10:00,
2013-10-18 02:13:00,71.1,67.0,29.92,ENE,67,0.0,0.0,87,0.00,,---,0.00,VWS V14.01,2013-10-18 06:13:00,
2013-10-18 02:18:00,71.2,67.1,29.92,ENE,67,0.0,0.0,87,0.00,,---,0.00,VWS V14.01,2013-10-18 06:18:00,
2013-10-18 02:20:00,71.2,67.1,29.92,ENE,67,0.0,0.0,87,0.00,,---,0.00,VWS V14.01,2013-10-18 06:20:00,
2013-10-18 02:23:00,71.2,67.1,29.92,ENE,67,0.0,0.0,87,0.00,,---,0.00,VWS V14.01,2013-10-18 06:23:00,
2013-10-18 02:28:00,71.5,67.4,29.92,ENE,67,0.0,0.0,87,0.00,,---,0.00,VWS V14.01,2013-10-18 06:28:00,
2013-10-18 02:30:00,71.5,67.4,29.92,ENE,67,0.0,0.0,87,0.00,,---,0.00,VWS V14.01,2013-10-18 06:30:00,
2013-10-18 02:33:00,71.6,67.5,29.92,ENE,67,0.0,0.0,87,0.00,,---,0.00,VWS V14.01,2013-10-18 06:33:00,
2013-10-18 02:38:00,71.6,67.5,29.92,ENE,67,0.0,0.0,87,0.00,,---,0.00,VWS V14.01,2013-10-18 06:38:00,
2013-10-18 02:40:00,71.6,67.5,29.92,ENE,67,0.0,0.0,87,0.00,,---,0.00,VWS V14.01,2013-10-18 06:40:00,
2013-10-18 02:43:00,71.5,67.4,29.92,ENE,67,0.0,0.0,87,0.00,,---,0.00,VWS V14.01,2013-10-18 06:43:00,
2013-10-18 02:48:00,71.5,67.4,29.92,ENE,67,0.0,0.0,87,0.00,,---,0.00,VWS V14.01,2013-10-18 06:48:00,
2013-10-18 02:50:00,71.5,67.4,29.92,ENE,67,0.0,0.0,87,0.00,,---,0.00,VWS V14.01,2013-10-18 06:50:00,
2013-10-18 02:53:00,71.4,67.3,29.92,ENE,67,0.0,0.0,87,0.00,,---,0.00,VWS V14.01,2013-10-18 06:53:00,
2013-10-18 02:58:00,71.4,67.3,29.92,ENE,67,0.0,0.0,87,0.00,,---,0.00,VWS V14.01,2013-10-18 06:58:00,
2013-10-18 03:00:00,71.4,67.3,29.92,ENE,67,0.0,0.0,87,0.00,,---,0.00,VWS V14.01,2013-10-18 07:00:00,
2013-10-18 03:03:00,71.4,67.3,29.91,ENE,67,0.0,0.0,87,0.00,,---,0.00,VWS V14.01,2013-10-18 07:03:00,
2013-10-18 03:08:00,71.3,67.2,29.91,ENE,67,0.0,0.0,87,0.00,,---,0.00,VWS V14.01,2013-10-18 07:08:00,
2013-10-18 03:10:00,71.3,67.2,29.91,ENE,67,0.0,0.0,87,0.00,,---,0.00,VWS V14.01,2013-10-18 07:10:00,
2013-10-18 03:13:00,71.4,67.3,29.91,ENE,67,0.0,0.0,87,0.00,,---,0.00,VWS V14.01,2013-10-18 07:13:00,
2013-10-18 03:18:00,71.4,67.3,29.91,ENE,67,0.0,0.0,87,0.00,,---,0.00,VWS V14.01,2013-10-18 07:18:00,
2013-10-18 03:20:00,71.4,67.3,29.91,ENE,67,0.0,0.0,87,0.00,,---,0.00,VWS V14.01,2013-10-18 07:20:00,
2013-10-18 03:23:00,71.4,67.3,29.91,ENE,67,0.0,0.0,87,0.00,,---,0.00,VWS V14.01,2013-10-18 07:23:00,
2013-10-18 03:28:00,71.3,67.2,29.91,ENE,67,0.0,0.0,87,0.00,,---,0.00,VWS V14.01,2013-10-18 07:28:00,
2013-10-18 03:30:00,71.3,67.2,29.91,ENE,67,0.0,0.0,87,0.00,,---,0.00,VWS V14.01,2013-10-18 07:30:00,
2013-10-18 03:33:00,71.3,67.2,29.91,ENE,67,0.0,0.0,87,0.00,,---,0.00,VWS V14.01,2013-10-18 07:33:00,
2013-10-18 03:38:00,71.3,67.2,29.91,ENE,67,0.0,0.0,87,0.00,,---,0.00,VWS V14.01,2013-10-18 07:38:00,
2013-10-18 03:40:00,71.3,67.2,29.91,ENE,67,0.0,0.0,87,0.00,,---,0.00,VWS V14.01,2013-10-18 07:40:00,
2013-10-18 03:43:00,71.3,67.2,29.91,ENE,67,0.0,0.0,87,0.00,,---,0.00,VWS V14.01,2013-10-18 07:43:00,
2013-10-18 03:48:00,71.2,67.1,29.91,ENE,67,0.0,0.0,87,0.00,,---,0.00,VWS V14.01,2013-10-18 07:48:00,
2013-10-18 03:50:00,71.2,67.1,29.91,ENE,67,0.0,0.0,87,0.00,,---,0.00,VWS V14.01,2013-10-18 07:50:00,
2013-10-18 03:53:00,71.3,67.2,29.91,ENE,67,0.0,0.0,87,0.00,,---,0.00,VWS V14.01,2013-10-18 07:53:00,
2013-10-18 03:58:00,71.3,67.2,29.91,ENE,66,0.0,0.0,87,0.00,,---,0.00,VWS V14.01,2013-10-18 07:58:00,
2013-10-18 04:00:00,71.3,67.2,29.91,ENE,66,0.0,0.0,87,0.00,,---,0.00,VWS V14.01,2013-10-18 08:00:00,
2013-10-18 04:03:00,71.3,67.2,29.91,ENE,67,0.0,0.0,87,0.00,,---,0.00,VWS V14.01,2013-10-18 08:03:00,
2013-10-18 04:08:00,71.3,67.2,29.91,ENE,67,0.0,0.0,87,0.00,,---,0.00,VWS V14.01,2013-10-18 08:08:00,
2013-10-18 04:10:00,71.3,67.2,29.91,ENE,67,0.0,0.0,87,0.00,,---,0.00,VWS V14.01,2013-10-18 08:10:00,
2013-10-18 04:13:00,71.2,67.5,29.91,ENE,66,0.0,0.0,88,0.00,,---,0.00,VWS V14.01,2013-10-18 08:13:00,
2013-10-18 04:18:00,71.1,67.0,29.91,ENE,67,0.0,0.0,87,0.00,,---,0.00,VWS V14.01,2013-10-18 08:18:00,
2013-10-18 04:20:00,71.1,67.0,29.91,ENE,67,0.0,0.0,87,0.00,,---,0.00,VWS V14.01,2013-10-18 08:20:00,
2013-10-18 04:23:00,71.1,67.4,29.91,ENE,67,0.0,0.0,88,0.00,,---,0.00,VWS V14.01,2013-10-18 08:23:00,
2013-10-18 04:28:00,71.0,67.3,29.91,ENE,67,0.0,0.0,88,0.00,,---,0.00,VWS V14.01,2013-10-18 08:28:00,
2013-10-18 04:30:00,71.0,67.3,29.91,ENE,67,0.0,0.0,88,0.00,,---,0.00,VWS V14.01,2013-10-18 08:30:00,
2013-10-18 04:33:00,71.1,67.4,29.91,ENE,67,0.0,0.0,88,0.00,,---,0.00,VWS V14.01,2013-10-18 08:33:00,
2013-10-18 04:38:00,70.9,67.2,29.91,ENE,67,0.0,0.0,88,0.00,,---,0.00,VWS V14.01,2013-10-18 08:38:00,
2013-10-18 04:40:00,70.9,67.2,29.91,ENE,66,0.0,0.0,88,0.00,,---,0.00,VWS V14.01,2013-10-18 08:40:00,
2013-10-18 04:43:00,70.6,66.9,29.91,ENE,67,0.0,0.0,88,0.00,,---,0.00,VWS V14.01,2013-10-18 08:43:00,
2013-10-18 04:48:00,70.5,66.8,29.91,ENE,67,0.0,0.0,88,0.00,,---,0.00,VWS V14.01,2013-10-18 08:48:00,
2013-10-18 04:50:00,70.5,66.8,29.91,ENE,67,0.0,0.0,88,0.00,,---,0.00,VWS V14.01,2013-10-18 08:50:00,
2013-10-18 04:53:00,70.5,66.8,29.91,ENE,67,0.0,0.0,88,0.00,,---,0.00,VWS V14.01,2013-10-18 08:53:00,
2013-10-18 04:58:00,70.3,66.6,29.92,ENE,67,0.0,0.0,88,0.00,,---,0.00,VWS V14.01,2013-10-18 08:58:00,
2013-10-18 05:00:00,70.4,66.7,29.91,ENE,67,0.0,0.0,88,0.00,,---,0.00,VWS V14.01,2013-10-18 09:00:00,
2013-10-18 05:03:00,70.3,66.6,29.92,ENE,67,0.0,0.0,88,0.00,,---,0.00,VWS V14.01,2013-10-18 09:03:00,
2013-10-18 05:08:00,70.3,66.6,29.92,ENE,67,0.0,0.0,88,0.00,,---,0.00,VWS V14.01,2013-10-18 09:08:00,
2013-10-18 05:10:00,70.3,66.6,29.92,ENE,67,0.0,0.0,88,0.00,,---,0.00,VWS V14.01,2013-10-18 09:10:00,
2013-10-18 05:13:00,70.3,66.6,29.92,ENE,67,0.0,0.0,88,0.00,,---,0.00,VWS V14.01,2013-10-18 09:13:00,
2013-10-18 05:18:00,70.3,66.6,29.92,ENE,67,0.0,0.0,88,0.00,,---,0.00,VWS V14.01,2013-10-18 09:18:00,
2013-10-18 05:20:00,70.3,66.6,29.92,ENE,67,0.0,0.0,88,0.00,,---,0.00,VWS V14.01,2013-10-18 09:20:00,
2013-10-18 05:23:00,70.4,66.7,29.92,ENE,67,0.0,0.0,88,0.00,,---,0.00,VWS V14.01,2013-10-18 09:23:00,
2013-10-18 05:28:00,70.3,66.6,29.92,ENE,67,0.0,0.0,88,0.00,,---,0.00,VWS V14.01,2013-10-18 09:28:00,
2013-10-18 05:30:00,70.4,66.7,29.92,ENE,67,0.0,0.0,88,0.00,,---,0.00,VWS V14.01,2013-10-18 09:30:00,
2013-10-18 05:33:00,70.3,66.6,29.92,ENE,67,0.0,0.0,88,0.00,,---,0.00,VWS V14.01,2013-10-18 09:33:00,
2013-10-18 05:40:00,70.2,66.5,29.92,ENE,67,0.0,0.0,88,0.00,,---,0.00,VWS V14.01,2013-10-18 09:40:00,
2013-10-18 05:50:00,70.0,66.3,29.92,North,0,0.0,0.0,88,0.00,,---,0.00,VWS V14.01,2013-10-18 09:50:00,
2013-10-18 06:00:00,69.7,66.0,29.93,North,0,0.0,0.0,88,0.00,,---,0.00,VWS V14.01,2013-10-18 10:00:00,
2013-10-18 06:10:00,69.6,65.9,29.93,North,0,0.0,0.0,88,0.00,,---,0.00,VWS V14.01,2013-10-18 10:10:00,
2013-10-18 06:20:00,69.5,65.8,29.93,North,0,0.0,0.0,88,0.00,,---,0.00,VWS V14.01,2013-10-18 10:20:00,
2013-10-18 06:30:00,69.4,65.7,29.94,North,0,0.0,0.0,88,0.00,,---,0.00,VWS V14.01,2013-10-18 10:30:00,
2013-10-18 06:40:00,69.3,65.6,29.94,North,0,0.0,0.0,88,0.00,,---,0.00,VWS V14.01,2013-10-18 10:40:00,
2013-10-18 06:50:00,70.0,66.3,29.92,North,0,0.0,0.0,88,0.00,,---,0.00,VWS V14.01,2013-10-18 10:50:00,
2013-10-18 06:51:00,68.9,65.2,29.94,ENE,67,0.0,0.0,88,0.00,,---,0.00,VWS V14.01,2013-10-18 10:51:00,
2013-10-18 06:56:00,68.9,65.2,29.94,ENE,67,0.0,0.0,88,0.00,,---,0.00,VWS V14.01,2013-10-18 10:56:00,
2013-10-18 07:00:00,68.9,65.2,29.94,ENE,67,0.0,0.0,88,0.00,,---,0.00,VWS V14.01,2013-10-18 11:00:00,
2013-10-18 07:01:00,68.9,65.2,29.94,ENE,67,0.0,0.0,88,0.00,,---,0.00,VWS V14.01,2013-10-18 11:01:00,
2013-10-18 07:06:00,68.7,65.0,29.94,ENE,67,0.0,0.0,88,0.00,,---,0.00,VWS V14.01,2013-10-18 11:06:00,
2013-10-18 07:10:00,68.6,64.9,29.94,ENE,67,0.0,0.0,88,0.00,,---,0.00,VWS V14.01,2013-10-18 11:10:00,
2013-10-18 07:11:00,68.6,64.9,29.94,ENE,67,0.0,0.0,88,0.00,,---,0.00,VWS V14.01,2013-10-18 11:11:00,
2013-10-18 07:16:00,68.5,64.5,29.94,ENE,67,0.0,0.0,87,0.00,,---,0.00,VWS V14.01,2013-10-18 11:16:00,
2013-10-18 07:20:00,68.4,64.4,29.95,ENE,67,0.0,0.0,87,0.00,,---,0.00,VWS V14.01,2013-10-18 11:20:00,
2013-10-18 07:21:00,68.3,64.3,29.95,ENE,67,0.0,0.0,87,0.00,,---,0.00,VWS V14.01,2013-10-18 11:21:00,
2013-10-18 07:26:00,68.2,64.2,29.95,ENE,67,0.0,0.0,87,0.00,,---,0.00,VWS V14.01,2013-10-18 11:26:00,
2013-10-18 07:30:00,68.2,64.2,29.95,ENE,67,0.0,0.0,87,0.00,,---,0.00,VWS V14.01,2013-10-18 11:30:00,
2013-10-18 07:31:00,68.1,64.1,29.95,ENE,67,0.0,0.0,87,0.00,,---,0.00,VWS V14.01,2013-10-18 11:31:00,
2013-10-18 07:36:00,68.2,64.5,29.95,ENE,67,0.0,0.0,88,0.00,,---,0.00,VWS V14.01,2013-10-18 11:36:00,
2013-10-18 07:40:00,68.2,64.5,29.95,ENE,67,0.0,0.0,88,0.00,,---,0.00,VWS V14.01,2013-10-18 11:40:00,
2013-10-18 07:41:00,68.1,64.4,29.95,ENE,67,0.0,0.0,88,0.00,,---,0.00,VWS V14.01,2013-10-18 11:41:00,
2013-10-18 07:46:00,68.2,64.5,29.95,ENE,67,0.0,0.0,88,0.00,,---,0.00,VWS V14.01,2013-10-18 11:46:00,
2013-10-18 07:50:00,68.2,64.5,29.95,ENE,67,0.0,0.0,88,0.00,,---,0.00,VWS V14.01,2013-10-18 11:50:00,
2013-10-18 07:51:00,68.3,64.6,29.96,ENE,66,0.0,0.0,88,0.00,,---,0.00,VWS V14.01,2013-10-18 11:51:00,
2013-10-18 07:56:00,68.4,64.7,29.96,ENE,67,0.0,0.0,88,0.00,,---,0.00,VWS V14.01,2013-10-18 11:56:00,
2013-10-18 08:00:00,68.4,64.7,29.96,ENE,67,0.0,0.0,88,0.00,,---,0.00,VWS V14.01,2013-10-18 12:00:00,
2013-10-18 08:01:00,68.7,65.0,29.96,ENE,67,0.0,0.0,88,0.00,,---,0.00,VWS V14.01,2013-10-18 12:01:00,
2013-10-18 08:06:00,69.2,65.5,29.96,ENE,66,0.0,0.0,88,0.00,,---,0.00,VWS V14.01,2013-10-18 12:06:00,
2013-10-18 08:10:00,69.4,65.7,29.96,ENE,67,0.0,0.0,88,0.00,,---,0.00,VWS V14.01,2013-10-18 12:10:00,
2013-10-18 08:11:00,69.5,65.8,29.97,ENE,67,0.0,0.0,88,0.00,,---,0.00,VWS V14.01,2013-10-18 12:11:00,
2013-10-18 08:16:00,69.9,66.2,29.97,ENE,67,0.0,0.0,88,0.00,,---,0.00,VWS V14.01,2013-10-18 12:16:00,
2013-10-18 08:20:00,70.1,66.7,29.97,ENE,67,0.0,0.0,89,0.00,,---,0.00,VWS V14.01,2013-10-18 12:20:00,
2013-10-18 08:21:00,70.4,67.0,29.97,ENE,67,0.0,0.0,89,0.00,,---,0.00,VWS V14.01,2013-10-18 12:21:00,
2013-10-18 08:26:00,70.7,67.3,29.97,ENE,67,0.0,0.0,89,0.00,,---,0.00,VWS V14.01,2013-10-18 12:26:00,
2013-10-18 08:30:00,70.8,67.1,29.97,ENE,67,0.0,0.0,88,0.00,,---,0.00,VWS V14.01,2013-10-18 12:30:00,
2013-10-18 08:31:00,71.1,67.4,29.97,ENE,67,0.0,0.0,88,0.00,,---,0.00,VWS V14.01,2013-10-18 12:31:00,
2013-10-18 08:36:00,71.5,67.8,29.97,ENE,67,0.0,0.0,88,0.00,,---,0.00,VWS V14.01,2013-10-18 12:36:00,
2013-10-18 08:40:00,71.6,67.9,29.97,ENE,67,0.0,0.0,88,0.00,,---,0.00,VWS V14.01,2013-10-18 12:40:00,
2013-10-18 08:41:00,71.9,68.2,29.97,ENE,67,0.0,0.0,88,0.00,,---,0.00,VWS V14.01,2013-10-18 12:41:00,
2013-10-18 08:46:00,72.5,68.8,29.97,ENE,67,0.0,0.0,88,0.00,,---,0.00,VWS V14.01,2013-10-18 12:46:00,
2013-10-18 08:50:00,72.7,68.9,29.97,ENE,67,0.0,0.0,88,0.00,,---,0.00,VWS V14.01,2013-10-18 12:50:00,
2013-10-18 08:51:00,73.3,69.5,29.97,ENE,67,0.0,0.0,88,0.00,,---,0.00,VWS V14.01,2013-10-18 12:51:00,
2013-10-18 08:56:00,74.2,70.4,29.98,SE,133,0.0,1.0,88,0.00,,---,0.00,VWS V14.01,2013-10-18 12:56:00,
2013-10-18 09:00:00,74.6,70.8,29.98,SE,130,0.0,1.0,88,0.00,,---,0.00,VWS V14.01,2013-10-18 13:00:00,
2013-10-18 09:01:00,75.1,71.0,29.98,ESE,107,0.0,1.0,87,0.00,,---,0.00,VWS V14.01,2013-10-18 13:01:00,
2013-10-18 09:06:00,76.0,71.5,29.98,ESE,107,0.0,1.0,86,0.00,,---,0.00,VWS V14.01,2013-10-18 13:06:00,
2013-10-18 09:10:00,76.3,72.2,29.98,ESE,107,0.0,1.0,87,0.00,,---,0.00,VWS V14.01,2013-10-18 13:10:00,
2013-10-18 09:11:00,77.0,72.8,29.98,ESE,115,0.0,1.0,87,0.00,,---,0.00,VWS V14.01,2013-10-18 13:11:00,
2013-10-18 09:16:00,77.6,73.4,29.98,ESE,116,0.0,1.0,87,0.00,,---,0.00,VWS V14.01,2013-10-18 13:16:00,
2013-10-18 09:20:00,77.7,73.5,29.98,East,99,0.0,1.0,87,0.00,,---,0.00,VWS V14.01,2013-10-18 13:20:00,
2013-10-18 09:21:00,77.9,73.4,29.98,NE,51,0.0,1.0,86,0.00,,---,0.00,VWS V14.01,2013-10-18 13:21:00,
2013-10-18 09:26:00,78.3,73.4,29.98,SW,216,0.0,1.0,85,0.00,,---,0.00,VWS V14.01,2013-10-18 13:26:00,
2013-10-18 09:30:00,78.3,73.4,29.98,WSW,239,0.0,1.0,85,0.00,,---,0.00,VWS V14.01,2013-10-18 13:30:00,
2013-10-18 09:31:00,78.5,73.6,29.99,NE,41,0.0,0.0,85,0.00,,---,0.00,VWS V14.01,2013-10-18 13:31:00,
2013-10-18 09:36:00,79.1,73.8,29.99,East,86,0.0,2.0,84,0.00,,---,0.00,VWS V14.01,2013-10-18 13:36:00,
2013-10-18 09:40:00,79.3,73.7,29.99,SSE,153,0.0,2.0,83,0.00,,---,0.00,VWS V14.01,2013-10-18 13:40:00,
2013-10-18 09:41:00,79.7,74.1,29.99,West,276,0.0,2.0,83,0.00,,---,0.00,VWS V14.01,2013-10-18 13:41:00,
2013-10-18 09:46:00,79.8,74.2,29.99,ENE,71,0.0,2.0,83,0.00,,---,0.00,VWS V14.01,2013-10-18 13:46:00,
2013-10-18 09:50:00,80.0,74.4,29.99,ENE,72,0.0,2.0,83,0.00,,---,0.00,VWS V14.01,2013-10-18 13:50:00,
2013-10-18 09:51:00,80.5,74.1,29.99,ESE,116,0.0,3.0,81,0.00,,---,0.00,VWS V14.01,2013-10-18 13:51:00,
2013-10-18 09:56:00,81.0,74.2,29.99,North,349,0.0,3.0,80,0.00,,---,0.00,VWS V14.01,2013-10-18 13:56:00,
2013-10-18 10:00:00,81.0,74.2,29.99,North,352,0.0,3.0,80,0.00,,---,0.00,VWS V14.01,2013-10-18 14:00:00,
2013-10-18 10:01:00,81.5,74.7,29.98,NNW,339,0.0,0.0,80,0.00,,---,0.00,VWS V14.01,2013-10-18 14:01:00,
2013-10-18 10:06:00,82.1,74.9,29.99,SSW,203,0.0,1.0,79,0.00,,---,0.00,VWS V14.01,2013-10-18 14:06:00,
2013-10-18 10:10:00,82.2,74.7,29.98,West,267,0.0,1.0,78,0.00,,---,0.00,VWS V14.01,2013-10-18 14:10:00,
2013-10-18 10:11:00,82.1,73.8,29.99,ESE,103,0.0,2.0,76,0.00,,---,0.00,VWS V14.01,2013-10-18 14:11:00,
2013-10-18 10:16:00,82.2,73.9,29.98,SSW,207,0.0,2.0,76,0.00,,---,0.00,VWS V14.01,2013-10-18 14:16:00,
2013-10-18 10:20:00,82.3,73.6,29.98,SSW,211,0.0,2.0,75,0.00,,---,0.00,VWS V14.01,2013-10-18 14:20:00,
2013-10-18 10:22:00,82.5,73.4,29.98,East,101,0.0,2.0,74,0.00,,---,0.00,VWS V14.01,2013-10-18 14:22:00,
2013-10-18 10:27:00,83.0,74.3,29.99,WSW,239,0.0,2.0,75,0.00,,---,0.00,VWS V14.01,2013-10-18 14:27:00,
2013-10-18 10:30:00,83.2,74.5,29.99,East,91,0.0,2.0,75,0.00,,---,0.00,VWS V14.01,2013-10-18 14:30:00,
2013-10-18 10:32:00,83.6,74.4,29.98,WNW,290,0.0,1.0,74,0.00,,---,0.00,VWS V14.01,2013-10-18 14:32:00,
2013-10-18 10:37:00,84.0,74.4,29.98,ESE,103,0.0,1.0,73,0.00,,---,0.00,VWS V14.01,2013-10-18 14:37:00,
2013-10-18 10:40:00,84.2,74.6,29.99,ESE,103,0.0,1.0,73,0.00,,---,0.00,VWS V14.01,2013-10-18 14:40:00,
2013-10-18 10:42:00,84.7,75.1,29.98,WSW,257,0.0,2.0,73,0.00,,---,0.00,VWS V14.01,2013-10-18 14:42:00,
2013-10-18 10:47:00,85.1,74.6,29.98,WNW,283,0.0,3.0,71,0.00,,---,0.00,VWS V14.01,2013-10-18 14:47:00,
2013-10-18 10:50:00,85.1,74.2,29.98,West,277,0.0,3.0,70,0.00,,---,0.00,VWS V14.01,2013-10-18 14:50:00,
2013-10-18 10:52:00,85.4,74.1,29.98,South,173,0.0,2.0,69,0.00,,---,0.00,VWS V14.01,2013-10-18 14:52:00,
2013-10-18 10:57:00,85.6,74.7,29.98,ESE,121,0.0,2.0,70,0.00,,---,0.00,VWS V14.01,2013-10-18 14:57:00,
2013-10-18 11:00:00,85.6,74.3,29.98,ENE,63,1.0,2.0,69,0.00,,---,0.00,VWS V14.01,2013-10-18 15:00:00,
2013-10-18 11:02:00,85.9,74.6,29.98,East,98,0.0,2.0,69,0.00,,---,0.00,VWS V14.01,2013-10-18 15:02:00,
2013-10-18 11:07:00,86.5,74.2,29.98,West,267,0.0,3.0,67,0.00,,---,0.00,VWS V14.01,2013-10-18 15:07:00,
2013-10-18 11:10:00,86.6,74.8,29.98,WNW,288,1.0,3.0,68,0.00,,---,0.00,VWS V14.01,2013-10-18 15:10:00,
2013-10-18 11:12:00,86.6,74.3,29.98,WSW,240,0.0,1.0,67,0.00,,---,0.00,VWS V14.01,2013-10-18 15:12:00,
2013-10-18 11:17:00,87.0,74.3,29.98,SSE,155,0.0,1.0,66,0.00,,---,0.00,VWS V14.01,2013-10-18 15:17:00,
2013-10-18 11:20:00,87.1,73.9,29.98,NNE,32,0.0,1.0,65,0.00,,---,0.00,VWS V14.01,2013-10-18 15:20:00,
2013-10-18 11:22:00,87.5,74.8,29.98,WSW,250,0.0,1.0,66,0.00,,---,0.00,VWS V14.01,2013-10-18 15:22:00,
2013-10-18 11:27:00,88.0,73.8,29.98,East,86,1.0,3.0,63,0.00,,---,0.00,VWS V14.01,2013-10-18 15:27:00,
2013-10-18 11:30:00,88.0,74.8,29.98,East,85,1.0,3.0,65,0.00,,---,0.00,VWS V14.01,2013-10-18 15:30:00,
2013-10-18 11:32:00,87.8,73.6,29.98,South,172,0.0,1.0,63,0.00,,---,0.00,VWS V14.01,2013-10-18 15:32:00,
2013-10-18 11:37:00,88.0,74.3,29.98,WSW,238,1.0,1.0,64,0.00,,---,0.00,VWS V14.01,2013-10-18 15:37:00,
2013-10-18 11:40:00,88.0,74.3,29.98,ESE,110,0.0,2.0,64,0.00,,---,0.00,VWS V14.01,2013-10-18 15:40:00,
2013-10-18 11:42:00,88.3,74.1,29.98,NW,316,0.0,1.0,63,0.00,,---,0.00,VWS V14.01,2013-10-18 15:42:00,
2013-10-18 11:47:00,87.1,72.5,29.98,ESE,103,0.0,2.0,62,0.00,,---,0.00,VWS V14.01,2013-10-18 15:47:00,
2013-10-18 11:50:00,86.8,72.2,29.98,ESE,103,0.0,2.0,62,0.00,,---,0.00,VWS V14.01,2013-10-18 15:50:00,
2013-10-18 11:52:00,86.7,73.5,29.98,ENE,72,2.0,2.0,65,0.00,,---,0.00,VWS V14.01,2013-10-18 15:52:00,
2013-10-18 11:57:00,87.6,73.0,29.97,ESE,117,0.0,2.0,62,0.00,,---,0.00,VWS V14.01,2013-10-18 15:57:00,
2013-10-18 12:00:00,87.8,72.7,29.97,SSW,207,0.0,2.0,61,0.00,,---,0.00,VWS V14.01,2013-10-18 16:00:00,
2013-10-18 12:02:00,88.0,73.8,29.97,ESE,107,1.0,3.0,63,0.00,,---,0.00,VWS V14.01,2013-10-18 16:02:00,
2013-10-18 12:07:00,87.9,72.8,29.97,SE,125,0.0,3.0,61,0.00,,---,0.00,VWS V14.01,2013-10-18 16:07:00,
2013-10-18 12:10:00,88.0,72.9,29.97,ENE,75,1.0,3.0,61,0.00,,---,0.00,VWS V14.01,2013-10-18 16:10:00,
2013-10-18 12:12:00,88.6,73.9,29.97,NNE,12,0.0,1.0,62,0.00,,---,0.00,VWS V14.01,2013-10-18 16:12:00,
2013-10-18 12:17:00,89.1,72.9,29.97,ESE,105,2.0,3.0,59,0.00,,---,0.00,VWS V14.01,2013-10-18 16:17:00,
2013-10-18 12:20:00,89.2,72.5,29.97,ESE,106,1.0,3.0,58,0.00,,---,0.00,VWS V14.01,2013-10-18 16:20:00,
2013-10-18 12:22:00,89.7,73.5,29.96,ENE,65,0.0,1.0,59,0.00,,---,0.00,VWS V14.01,2013-10-18 16:22:00,
2013-10-18 12:27:00,90.4,72.6,29.96,SE,127,1.0,1.0,56,0.00,,---,0.00,VWS V14.01,2013-10-18 16:27:00,
2013-10-18 12:30:00,90.4,72.1,29.96,East,99,1.0,1.0,55,0.00,,---,0.00,VWS V14.01,2013-10-18 16:30:00,
2013-10-18 12:32:00,90.0,73.2,29.96,ENE,68,2.0,4.0,58,0.00,,---,0.00,VWS V14.01,2013-10-18 16:32:00,
2013-10-18 12:37:00,89.5,73.3,29.96,WNW,285,0.0,4.0,59,0.00,,---,0.00,VWS V14.01,2013-10-18 16:37:00,
2013-10-18 12:40:00,89.6,72.9,29.96,WNW,287,0.0,4.0,58,0.00,,---,0.00,VWS V14.01,2013-10-18 16:40:00,
2013-10-18 12:42:00,90.4,73.1,29.95,WSW,237,0.0,2.0,57,0.00,,---,0.00,VWS V14.01,2013-10-18 16:42:00,
2013-10-18 12:47:00,90.6,72.2,29.95,WNW,294,0.0,3.0,55,0.00,,---,0.00,VWS V14.01,2013-10-18 16:47:00,
2013-10-18 12:50:00,90.6,72.2,29.95,ESE,115,1.0,3.0,55,0.00,,---,0.00,VWS V14.01,2013-10-18 16:50:00,
2013-10-18 12:52:00,91.1,73.8,29.95,ESE,105,0.0,1.0,57,0.00,,---,0.00,VWS V14.01,2013-10-18 16:52:00,
2013-10-18 12:57:00,90.7,72.3,29.94,East,86,1.0,2.0,55,0.00,,---,0.00,VWS V14.01,2013-10-18 16:57:00,
2013-10-18 13:00:00,90.6,72.2,29.94,SE,134,1.0,4.0,55,0.00,,---,0.00,VWS V14.01,2013-10-18 17:00:00,
2013-10-18 13:02:00,90.9,72.0,29.95,ESE,120,1.0,4.0,54,0.00,,---,0.00,VWS V14.01,2013-10-18 17:02:00,
2013-10-18 13:07:00,91.3,73.4,29.94,WNW,297,1.0,4.0,56,0.00,,---,0.00,VWS V14.01,2013-10-18 17:07:00,
2013-10-18 13:10:00,91.4,73.5,29.94,NW,324,5.0,6.0,56,0.00,,---,0.00,VWS V14.01,2013-10-18 17:10:00,
2013-10-18 13:12:00,91.1,72.2,29.94,WSW,257,0.0,5.0,54,0.00,,---,0.00,VWS V14.01,2013-10-18 17:12:00,
2013-10-18 13:17:00,90.3,71.4,29.94,East,79,1.0,5.0,54,0.00,,---,0.00,VWS V14.01,2013-10-18 17:17:00,
2013-10-18 13:20:00,90.2,71.9,29.94,East,79,0.0,5.0,55,0.00,,---,0.00,VWS V14.01,2013-10-18 17:20:00,
2013-10-18 13:22:00,89.7,72.4,29.93,ENE,75,1.0,2.0,57,0.00,,---,0.00,VWS V14.01,2013-10-18 17:22:00,
2013-10-18 13:27:00,89.3,72.1,29.93,ESE,116,0.0,2.0,57,0.00,,---,0.00,VWS V14.01,2013-10-18 17:27:00,
2013-10-18 13:30:00,89.3,72.6,29.93,ESE,115,0.0,2.0,58,0.00,,---,0.00,VWS V14.01,2013-10-18 17:30:00,
2013-10-18 13:32:00,89.7,72.4,29.93,NNE,32,1.0,3.0,57,0.00,,---,0.00,VWS V14.01,2013-10-18 17:32:00,
2013-10-18 13:35:00,89.4,72.7,29.93,ESE,106,0.0,3.0,58,0.00,,---,0.00,VWS V14.01,2013-10-18 17:35:00,
2013-10-18 13:40:00,89.7,73.0,29.93,ESE,106,1.0,2.0,58,0.00,,---,0.00,VWS V14.01,2013-10-18 17:40:00,
2013-10-18 13:45:00,89.7,72.4,29.92,ESE,102,0.0,4.0,57,0.00,,---,0.00,VWS V14.01,2013-10-18 17:45:00,
2013-10-18 13:50:00,88.8,72.6,29.92,NE,56,0.0,1.0,59,0.00,,---,0.00,VWS V14.01,2013-10-18 17:50:00,
2013-10-18 13:55:00,89.1,72.9,29.92,ESE,120,1.0,3.0,59,0.00,,---,0.00,VWS V14.01,2013-10-18 17:55:00,
2013-10-18 14:00:00,89.5,72.8,29.92,ENE,77,1.0,3.0,58,0.00,,---,0.00,VWS V14.01,2013-10-18 18:00:00,
2013-10-18 14:05:00,89.3,72.1,29.92,ESE,103,0.0,4.0,57,0.00,,---,0.00,VWS V14.01,2013-10-18 18:05:00,
2013-10-18 14:10:00,89.6,72.9,29.91,ESE,105,0.0,2.0,58,0.00,,---,0.00,VWS V14.01,2013-10-18 18:10:00,
2013-10-18 14:15:00,89.9,72.1,29.91,ESE,105,3.0,6.0,56,0.00,,---,0.00,VWS V14.01,2013-10-18 18:15:00,
2013-10-18 14:20:00,89.2,72.0,29.91,East,82,1.0,3.0,57,0.00,,---,0.00,VWS V14.01,2013-10-18 18:20:00,
2013-10-18 14:25:00,88.6,71.4,29.91,ESE,105,0.0,3.0,57,0.00,,---,0.00,VWS V14.01,2013-10-18 18:25:00,
2013-10-18 14:30:00,88.2,71.6,29.91,East,84,1.0,2.0,58,0.00,,---,0.00,VWS V14.01,2013-10-18 18:30:00,
2013-10-18 14:35:00,88.1,71.0,29.90,ESE,115,0.0,2.0,57,0.00,,---,0.00,VWS V14.01,2013-10-18 18:35:00,
2013-10-18 14:40:00,88.7,71.5,29.90,WNW,283,0.0,1.0,57,0.00,,---,0.00,VWS V14.01,2013-10-18 18:40:00,
2013-10-18 14:45:00,90.0,72.2,29.90,WNW,283,0.0,1.0,56,0.00,,---,0.00,VWS V14.01,2013-10-18 18:45:00,
2013-10-18 14:50:00,91.3,71.8,29.90,WNW,285,1.0,2.0,53,0.00,,---,0.00,VWS V14.01,2013-10-18 18:50:00,
2013-10-18 14:55:00,91.3,71.2,29.90,NNE,18,0.0,2.0,52,0.00,,---,0.00,VWS V14.01,2013-10-18 18:55:00,
2013-10-18 15:00:00,91.0,71.5,29.90,West,264,0.0,1.0,53,0.00,,---,0.00,VWS V14.01,2013-10-18 19:00:00,
2013-10-18 15:05:00,90.0,71.1,29.90,West,268,0.0,1.0,54,0.00,,---,0.00,VWS V14.01,2013-10-18 19:05:00,
2013-10-18 15:10:00,89.6,71.8,29.90,NE,45,0.0,0.0,56,0.00,,---,0.00,VWS V14.01,2013-10-18 19:10:00,
2013-10-18 15:15:00,90.4,72.1,29.90,East,84,0.0,2.0,55,0.00,,---,0.00,VWS V14.01,2013-10-18 19:15:00,
2013-10-18 15:20:00,91.0,71.5,29.90,West,274,2.0,2.0,53,0.00,,---,0.00,VWS V14.01,2013-10-18 19:20:00,
2013-10-18 15:25:00,91.2,70.6,29.89,NW,326,0.0,2.0,51,0.00,,---,0.00,VWS V14.01,2013-10-18 19:25:00,
2013-10-18 15:30:00,91.2,69.4,29.89,ESE,111,0.0,0.0,49,0.00,,---,0.00,VWS V14.01,2013-10-18 19:30:00,
2013-10-18 15:35:00,91.3,70.1,29.89,West,277,0.0,0.0,50,0.00,,---,0.00,VWS V14.01,2013-10-18 19:35:00,
2013-10-18 15:40:00,90.7,69.5,29.89,East,90,0.0,1.0,50,0.00,,---,0.00,VWS V14.01,2013-10-18 19:40:00,
2013-10-18 15:45:00,89.8,70.9,29.89,East,90,0.0,1.0,54,0.00,,---,0.00,VWS V14.01,2013-10-18 19:45:00,
2013-10-18 15:50:00,89.1,69.2,29.89,East,99,0.0,1.0,52,0.00,,---,0.00,VWS V14.01,2013-10-18 19:50:00,
2013-10-18 15:55:00,88.7,68.8,29.89,East,98,0.0,1.0,52,0.00,,---,0.00,VWS V14.01,2013-10-18 19:55:00,
2013-10-18 16:00:00,88.3,70.1,29.89,East,79,2.0,2.0,55,0.00,,---,0.00,VWS V14.01,2013-10-18 20:00:00,
2013-10-18 16:05:00,87.7,70.1,29.89,East,92,1.0,2.0,56,0.00,,---,0.00,VWS V14.01,2013-10-18 20:05:00,
2013-10-18 16:10:00,87.2,70.1,29.89,ESE,102,1.0,2.0,57,0.00,,---,0.00,VWS V14.01,2013-10-18 20:10:00,
2013-10-18 16:15:00,87.0,69.4,29.89,East,90,2.0,3.0,56,0.00,,---,0.00,VWS V14.01,2013-10-18 20:15:00,
2013-10-18 16:20:00,87.4,70.3,29.89,East,91,0.0,1.0,57,0.00,,---,0.00,VWS V14.01,2013-10-18 20:20:00,
2013-10-18 16:25:00,87.9,69.7,29.89,East,79,0.0,4.0,55,0.00,,---,0.00,VWS V14.01,2013-10-18 20:25:00,
2013-10-18 16:30:00,87.7,70.6,29.89,East,86,1.0,2.0,57,0.00,,---,0.00,VWS V14.01,2013-10-18 20:30:00,
2013-10-18 16:35:00,87.5,70.4,29.89,ENE,75,0.0,2.0,57,0.00,,---,0.00,VWS V14.01,2013-10-18 20:35:00,
2013-10-18 16:40:00,87.3,70.7,29.89,East,86,1.0,2.0,58,0.00,,---,0.00,VWS V14.01,2013-10-18 20:40:00,
2013-10-18 16:45:00,87.2,71.1,29.89,East,90,0.0,2.0,59,0.00,,---,0.00,VWS V14.01,2013-10-18 20:45:00,
2013-10-18 16:50:00,87.5,70.9,29.89,ESE,105,0.0,0.0,58,0.00,,---,0.00,VWS V14.01,2013-10-18 20:50:00,
2013-10-18 16:55:00,87.9,69.7,29.89,East,96,0.0,2.0,55,0.00,,---,0.00,VWS V14.01,2013-10-18 20:55:00,
2013-10-18 17:00:00,88.2,70.5,29.89,ESE,110,1.0,2.0,56,0.00,,---,0.00,VWS V14.01,2013-10-18 21:00:00,
2013-10-18 17:05:00,88.6,70.9,29.89,East,79,1.0,2.0,56,0.00,,---,0.00,VWS V14.01,2013-10-18 21:05:00,
2013-10-18 17:10:00,88.4,70.2,29.89,East,98,0.0,3.0,55,0.00,,---,0.00,VWS V14.01,2013-10-18 21:10:00,
2013-10-18 17:11:00,88.1,70.4,29.89,ESE,117,0.0,0.0,56,0.00,,---,0.00,VWS V14.01,2013-10-18 21:11:00,
2013-10-18 17:16:00,87.8,70.2,29.89,SE,134,0.0,0.0,56,0.00,,---,0.00,VWS V14.01,2013-10-18 21:16:00,
2013-10-18 17:20:00,87.7,70.1,29.89,SSE,167,0.0,0.0,56,0.00,,---,0.00,VWS V14.01,2013-10-18 21:20:00,
2013-10-18 17:21:00,87.6,70.0,29.89,East,95,1.0,4.0,56,0.00,,---,0.00,VWS V14.01,2013-10-18 21:21:00,
2013-10-18 17:26:00,87.2,70.1,29.89,ESE,103,1.0,4.0,57,0.00,,---,0.00,VWS V14.01,2013-10-18 21:26:00,
2013-10-18 17:30:00,87.2,70.6,29.89,East,88,0.0,4.0,58,0.00,,---,0.00,VWS V14.01,2013-10-18 21:30:00,
2013-10-18 17:31:00,87.3,71.2,29.88,East,94,0.0,0.0,59,0.00,,---,0.00,VWS V14.01,2013-10-18 21:31:00,
2013-10-18 17:36:00,87.3,70.2,29.89,ESE,103,0.0,2.0,57,0.00,,---,0.00,VWS V14.01,2013-10-18 21:36:00,
2013-10-18 17:40:00,87.3,70.2,29.89,East,91,1.0,2.0,57,0.00,,---,0.00,VWS V14.01,2013-10-18 21:40:00,
2013-10-18 17:41:00,87.3,69.7,29.89,East,99,1.0,3.0,56,0.00,,---,0.00,VWS V14.01,2013-10-18 21:41:00,
2013-10-18 17:46:00,87.3,70.2,29.89,East,100,1.0,3.0,57,0.00,,---,0.00,VWS V14.01,2013-10-18 21:46:00,
2013-10-18 17:50:00,87.4,70.3,29.89,East,94,0.0,3.0,57,0.00,,---,0.00,VWS V14.01,2013-10-18 21:50:00,
2013-10-18 17:51:00,87.3,70.2,29.89,SE,134,0.0,5.0,57,0.00,,---,0.00,VWS V14.01,2013-10-18 21:51:00,
2013-10-18 17:56:00,87.2,70.1,29.89,ESE,102,0.0,5.0,57,0.00,,---,0.00,VWS V14.01,2013-10-18 21:56:00,
2013-10-18 18:00:00,87.0,69.9,29.89,ESE,108,0.0,5.0,57,0.00,,---,0.00,VWS V14.01,2013-10-18 22:00:00,
2013-10-18 18:01:00,86.9,69.8,29.89,SSE,156,0.0,0.0,57,0.00,,---,0.00,VWS V14.01,2013-10-18 22:01:00,
2013-10-18 18:06:00,86.7,70.2,29.89,East,95,1.0,1.0,58,0.00,,---,0.00,VWS V14.01,2013-10-18 22:06:00,
2013-10-18 18:10:00,86.6,70.1,29.89,ESE,102,0.0,2.0,58,0.00,,---,0.00,VWS V14.01,2013-10-18 22:10:00,
2013-10-18 18:11:00,86.4,69.9,29.89,ENE,74,2.0,2.0,58,0.00,,---,0.00,VWS V14.01,2013-10-18 22:11:00,
2013-10-18 18:16:00,86.1,69.6,29.89,East,101,0.0,2.0,58,0.00,,---,0.00,VWS V14.01,2013-10-18 22:16:00,
2013-10-18 18:20:00,86.0,69.5,29.89,East,101,0.0,2.0,58,0.00,,---,0.00,VWS V14.01,2013-10-18 22:20:00,
2013-10-18 18:21:00,85.9,69.9,29.89,East,100,0.0,0.0,59,0.00,,---,0.00,VWS V14.01,2013-10-18 22:21:00,
2013-10-18 18:26:00,85.6,69.6,29.89,East,101,0.0,0.0,59,0.00,,---,0.00,VWS V14.01,2013-10-18 22:26:00,
2013-10-18 18:30:00,85.4,69.4,29.89,East,101,0.0,0.0,59,0.00,,---,0.00,VWS V14.01,2013-10-18 22:30:00,
2013-10-18 18:31:00,85.2,69.3,29.89,East,100,0.0,0.0,59,0.00,,---,0.00,VWS V14.01,2013-10-18 22:31:00,
2013-10-18 18:36:00,84.8,69.4,29.90,East,100,0.0,0.0,60,0.00,,---,0.00,VWS V14.01,2013-10-18 22:36:00,
2013-10-18 18:40:00,84.7,69.3,29.90,East,101,0.0,0.0,60,0.00,,---,0.00,VWS V14.01,2013-10-18 22:40:00,
2013-10-18 18:41:00,84.6,69.7,29.90,East,100,0.0,0.0,61,0.00,,---,0.00,VWS V14.01,2013-10-18 22:41:00,
2013-10-18 18:46:00,84.3,69.9,29.90,East,101,0.0,0.0,62,0.00,,---,0.00,VWS V14.01,2013-10-18 22:46:00,
2013-10-18 18:50:00,84.1,69.7,29.90,East,101,0.0,0.0,62,0.00,,---,0.00,VWS V14.01,2013-10-18 22:50:00,
2013-10-18 18:51:00,83.9,70.0,29.90,East,100,0.0,0.0,63,0.00,,---,0.00,VWS V14.01,2013-10-18 22:51:00,
2013-10-18 18:56:00,83.5,69.6,29.90,East,101,0.0,0.0,63,0.00,,---,0.00,VWS V14.01,2013-10-18 22:56:00,
2013-10-18 19:00:00,83.2,69.8,29.90,East,101,0.0,0.0,64,0.00,,---,0.00,VWS V14.01,2013-10-18 23:00:00,
2013-10-18 19:01:00,83.0,69.6,29.90,East,101,0.0,0.0,64,0.00,,---,0.00,VWS V14.01,2013-10-18 23:01:00,
2013-10-18 19:06:00,82.4,69.5,29.90,East,101,0.0,0.0,65,0.00,,---,0.00,VWS V14.01,2013-10-18 23:06:00,
2013-10-18 19:10:00,82.2,69.7,29.90,East,100,0.0,0.0,66,0.00,,---,0.00,VWS V14.01,2013-10-18 23:10:00,
2013-10-18 19:11:00,81.9,69.9,29.90,East,100,0.0,0.0,67,0.00,,---,0.00,VWS V14.01,2013-10-18 23:11:00,
2013-10-18 19:16:00,81.5,69.9,29.91,East,100,0.0,0.0,68,0.00,,---,0.00,VWS V14.01,2013-10-18 23:16:00,
2013-10-18 19:20:00,81.4,69.8,29.91,East,101,0.0,0.0,68,0.00,,---,0.00,VWS V14.01,2013-10-18 23:20:00,
2013-10-18 19:21:00,81.1,69.6,29.91,East,100,0.0,0.0,68,0.00,,---,0.00,VWS V14.01,2013-10-18 23:21:00,
2013-10-18 19:26:00,80.6,69.9,29.91,East,100,0.0,0.0,70,0.00,,---,0.00,VWS V14.01,2013-10-18 23:26:00,
2013-10-18 19:30:00,80.5,69.8,29.91,East,101,0.0,0.0,70,0.00,,---,0.00,VWS V14.01,2013-10-18 23:30:00,
2013-10-18 19:31:00,80.3,69.6,29.91,East,101,0.0,0.0,70,0.00,,---,0.00,VWS V14.01,2013-10-18 23:31:00,
2013-10-18 19:36:00,80.1,70.3,29.91,East,100,0.0,0.0,72,0.00,,---,0.00,VWS V14.01,2013-10-18 23:36:00,
2013-10-18 19:40:00,80.1,70.3,29.91,East,101,0.0,0.0,72,0.00,,---,0.00,VWS V14.01,2013-10-18 23:40:00,
2013-10-18 19:41:00,80.0,70.6,29.91,East,100,0.0,0.0,73,0.00,,---,0.00,VWS V14.01,2013-10-18 23:41:00,
2013-10-18 19:46:00,79.8,70.4,29.91,East,100,0.0,0.0,73,0.00,,---,0.00,VWS V14.01,2013-10-18 23:46:00,
2013-10-18 19:50:00,79.7,70.3,29.92,East,100,0.0,0.0,73,0.00,,---,0.00,VWS V14.01,2013-10-18 23:50:00,
2013-10-18 19:51:00,79.6,70.2,29.92,East,100,0.0,0.0,73,0.00,,---,0.00,VWS V14.01,2013-10-18 23:51:00,
2013-10-18 19:56:00,79.4,70.4,29.92,East,101,0.0,0.0,74,0.00,,---,0.00,VWS V14.01,2013-10-18 23:56:00,
2013-10-18 20:00:00,79.3,70.3,29.92,East,101,0.0,0.0,74,0.00,,---,0.00,VWS V14.01,2013-10-19 00:00:00,
2013-10-18 20:01:00,79.3,70.3,29.92,East,100,0.0,0.0,74,0.00,,---,0.00,VWS V14.01,2013-10-19 00:01:00,
2013-10-18 20:06:00,79.1,70.5,29.92,East,101,0.0,0.0,75,0.00,,---,0.00,VWS V14.01,2013-10-19 00:06:00,
2013-10-18 20:10:00,79.0,70.4,29.92,East,100,0.0,0.0,75,0.00,,---,0.00,VWS V14.01,2013-10-19 00:10:00,
2013-10-18 20:11:00,78.8,70.2,29.92,East,101,0.0,0.0,75,0.00,,---,0.00,VWS V14.01,2013-10-19 00:11:00,
2013-10-18 20:16:00,78.7,70.1,29.92,East,100,0.0,0.0,75,0.00,,---,0.00,VWS V14.01,2013-10-19 00:16:00,
2013-10-18 20:20:00,78.7,70.5,29.92,East,101,0.0,0.0,76,0.00,,---,0.00,VWS V14.01,2013-10-19 00:20:00,
2013-10-18 20:21:00,78.5,70.3,29.92,East,100,0.0,0.0,76,0.00,,---,0.00,VWS V14.01,2013-10-19 00:21:00,
2013-10-18 20:26:00,78.2,70.4,29.92,East,101,0.0,0.0,77,0.00,,---,0.00,VWS V14.01,2013-10-19 00:26:00,
2013-10-18 20:30:00,78.2,70.4,29.92,East,101,0.0,0.0,77,0.00,,---,0.00,VWS V14.01,2013-10-19 00:30:00,
2013-10-18 20:31:00,78.2,70.4,29.92,East,101,0.0,0.0,77,0.00,,---,0.00,VWS V14.01,2013-10-19 00:31:00,
2013-10-18 20:36:00,78.0,70.2,29.92,East,100,0.0,0.0,77,0.00,,---,0.00,VWS V14.01,2013-10-19 00:36:00,
2013-10-18 20:40:00,78.0,70.2,29.92,East,100,0.0,0.0,77,0.00,,---,0.00,VWS V14.01,2013-10-19 00:40:00,
2013-10-18 20:41:00,77.8,70.0,29.92,East,101,0.0,0.0,77,0.00,,---,0.00,VWS V14.01,2013-10-19 00:41:00,
2013-10-18 20:46:00,77.6,70.2,29.92,East,100,0.0,0.0,78,0.00,,---,0.00,VWS V14.01,2013-10-19 00:46:00,
2013-10-18 20:50:00,77.7,70.3,29.92,East,101,0.0,0.0,78,0.00,,---,0.00,VWS V14.01,2013-10-19 00:50:00,
2013-10-18 20:51:00,78.0,71.0,29.93,ENE,77,0.0,2.0,79,0.00,,---,0.00,VWS V14.01,2013-10-19 00:51:00,
2013-10-18 20:56:00,78.3,71.3,29.92,East,94,0.0,2.0,79,0.00,,---,0.00,VWS V14.01,2013-10-19 00:56:00,
2013-10-18 21:00:00,78.3,71.3,29.92,East,94,0.0,2.0,79,0.00,,---,0.00,VWS V14.01,2013-10-19 01:00:00,
2013-10-18 21:01:00,78.3,71.3,29.92,East,94,0.0,0.0,79,0.00,,---,0.00,VWS V14.01,2013-10-19 01:01:00,
2013-10-18 21:06:00,78.3,71.3,29.93,East,94,0.0,0.0,79,0.00,,---,0.00,VWS V14.01,2013-10-19 01:06:00,
2013-10-18 21:10:00,78.3,70.9,29.93,East,93,0.0,0.0,78,0.00,,---,0.00,VWS V14.01,2013-10-19 01:10:00,
2013-10-18 21:11:00,78.3,70.9,29.93,East,94,0.0,0.0,78,0.00,,---,0.00,VWS V14.01,2013-10-19 01:11:00,
2013-10-18 21:16:00,78.4,71.0,29.93,East,90,0.0,0.0,78,0.00,,---,0.00,VWS V14.01,2013-10-19 01:16:00,
2013-10-18 21:20:00,78.4,71.0,29.93,East,91,0.0,0.0,78,0.00,,---,0.00,VWS V14.01,2013-10-19 01:20:00,
2013-10-18 21:21:00,78.4,71.0,29.93,East,91,0.0,0.0,78,0.00,,---,0.00,VWS V14.01,2013-10-19 01:21:00,
2013-10-18 21:26:00,78.5,71.1,29.93,ENE,69,0.0,0.0,78,0.00,,---,0.00,VWS V14.01,2013-10-19 01:26:00,
2013-10-18 21:30:00,78.5,71.1,29.93,ENE,70,0.0,0.0,78,0.00,,---,0.00,VWS V14.01,2013-10-19 01:30:00,
2013-10-18 21:31:00,78.4,71.0,29.93,ENE,69,0.0,0.0,78,0.00,,---,0.00,VWS V14.01,2013-10-19 01:31:00,
2013-10-18 21:36:00,78.3,70.9,29.94,ENE,69,0.0,0.0,78,0.00,,---,0.00,VWS V14.01,2013-10-19 01:36:00,
2013-10-18 21:40:00,78.2,70.8,29.94,ENE,70,0.0,0.0,78,0.00,,---,0.00,VWS V14.01,2013-10-19 01:40:00,
2013-10-18 21:41:00,78.2,71.2,29.94,ENE,70,0.0,0.0,79,0.00,,---,0.00,VWS V14.01,2013-10-19 01:41:00,
2013-10-18 21:46:00,78.1,71.1,29.94,ENE,70,0.0,0.0,79,0.00,,---,0.00,VWS V14.01,2013-10-19 01:46:00,
2013-10-18 21:50:00,78.1,71.1,29.94,ENE,70,0.0,0.0,79,0.00,,---,0.00,VWS V14.01,2013-10-19 01:50:00,
2013-10-18 21:51:00,78.1,71.1,29.94,ESE,105,0.0,1.0,79,0.00,,---,0.00,VWS V14.01,2013-10-19 01:51:00,
2013-10-18 21:56:00,78.3,71.3,29.95,ESE,109,0.0,1.0,79,0.00,,---,0.00,VWS V14.01,2013-10-19 01:56:00,
2013-10-18 22:00:00,78.3,71.3,29.95,ESE,108,0.0,1.0,79,0.00,,---,0.00,VWS V14.01,2013-10-19 02:00:00,
2013-10-18 22:01:00,78.3,71.3,29.95,SSE,164,0.0,1.0,79,0.00,,---,0.00,VWS V14.01,2013-10-19 02:01:00,
2013-10-18 22:06:00,78.3,71.3,29.95,SSE,164,0.0,1.0,79,0.00,,---,0.00,VWS V14.01,2013-10-19 02:06:00,
2013-10-18 22:10:00,78.3,71.6,29.95,SSE,164,0.0,1.0,80,0.00,,---,0.00,VWS V14.01,2013-10-19 02:10:00,
2013-10-18 22:11:00,78.2,71.5,29.95,SSE,163,0.0,1.0,80,0.00,,---,0.00,VWS V14.01,2013-10-19 02:11:00,
2013-10-18 22:16:00,78.2,71.5,29.95,East,95,0.0,2.0,80,0.00,,---,0.00,VWS V14.01,2013-10-19 02:16:00,
2013-10-18 22:20:00,78.2,71.5,29.95,East,95,0.0,2.0,80,0.00,,---,0.00,VWS V14.01,2013-10-19 02:20:00,
2013-10-18 22:21:00,78.2,71.5,29.95,ESE,105,0.0,2.0,80,0.00,,---,0.00,VWS V14.01,2013-10-19 02:21:00,
2013-10-18 22:26:00,78.2,71.9,29.95,ENE,77,0.0,2.0,81,0.00,,---,0.00,VWS V14.01,2013-10-19 02:26:00,
2013-10-18 22:30:00,78.2,71.9,29.95,ENE,77,0.0,2.0,81,0.00,,---,0.00,VWS V14.01,2013-10-19 02:30:00,
2013-10-18 22:31:00,78.1,71.8,29.95,East,79,0.0,0.0,81,0.00,,---,0.00,VWS V14.01,2013-10-19 02:31:00,
2013-10-18 22:36:00,77.9,71.6,29.95,East,79,0.0,0.0,81,0.00,,---,0.00,VWS V14.01,2013-10-19 02:36:00,
2013-10-18 22:40:00,77.8,71.9,29.95,East,79,0.0,0.0,82,0.00,,---,0.00,VWS V14.01,2013-10-19 02:40:00,
2013-10-18 22:41:00,77.7,71.8,29.95,East,79,0.0,0.0,82,0.00,,---,0.00,VWS V14.01,2013-10-19 02:41:00,
2013-10-18 22:46:00,77.6,71.7,29.95,East,94,0.0,0.0,82,0.00,,---,0.00,VWS V14.01,2013-10-19 02:46:00,
2013-10-18 22:50:00,77.6,71.7,29.95,East,94,0.0,0.0,82,0.00,,---,0.00,VWS V14.01,2013-10-19 02:50:00,
2013-10-18 22:52:00,77.5,71.9,29.95,ESE,122,0.0,1.0,83,0.00,,---,0.00,VWS V14.01,2013-10-19 02:52:00,
2013-10-18 22:57:00,77.4,71.8,29.95,ESE,122,0.0,1.0,83,0.00,,---,0.00,VWS V14.01,2013-10-19 02:57:00,
2013-10-18 23:00:00,77.4,71.8,29.95,SE,126,0.0,1.0,83,0.00,,---,0.00,VWS V14.01,2013-10-19 03:00:00,
2013-10-18 23:02:00,77.2,71.6,29.95,ESE,123,0.0,1.0,83,0.00,,---,0.00,VWS V14.01,2013-10-19 03:02:00,
2013-10-18 23:07:00,77.0,71.4,29.95,ESE,110,0.0,1.0,83,0.00,,---,0.00,VWS V14.01,2013-10-19 03:07:00,
2013-10-18 23:10:00,77.0,71.4,29.95,ESE,110,0.0,1.0,83,0.00,,---,0.00,VWS V14.01,2013-10-19 03:10:00,
2013-10-18 23:12:00,76.9,71.7,29.95,ESE,105,0.0,1.0,84,0.00,,---,0.00,VWS V14.01,2013-10-19 03:12:00,
2013-10-18 23:17:00,76.8,71.2,29.95,ESE,115,0.0,1.0,83,0.00,,---,0.00,VWS V14.01,2013-10-19 03:17:00,
2013-10-18 23:20:00,76.8,71.2,29.95,ESE,115,0.0,1.0,83,0.00,,---,0.00,VWS V14.01,2013-10-19 03:20:00,
2013-10-18 23:22:00,76.6,71.1,29.95,ESE,103,0.0,1.0,83,0.00,,---,0.00,VWS V14.01,2013-10-19 03:22:00,
2013-10-18 23:27:00,76.5,71.0,29.95,ESE,103,0.0,1.0,83,0.00,,---,0.00,VWS V14.01,2013-10-19 03:27:00,
2013-10-18 23:30:00,76.5,71.0,29.95,ESE,103,0.0,1.0,83,0.00,,---,0.00,VWS V14.01,2013-10-19 03:30:00,
2013-10-18 23:32:00,76.3,71.1,29.95,ESE,103,0.0,0.0,84,0.00,,---,0.00,VWS V14.01,2013-10-19 03:32:00,
2013-10-18 23:37:00,76.2,71.0,29.95,ESE,103,0.0,0.0,84,0.00,,---,0.00,VWS V14.01,2013-10-19 03:37:00,
2013-10-18 23:40:00,76.1,70.9,29.95,ESE,103,0.0,0.0,84,0.00,,---,0.00,VWS V14.01,2013-10-19 03:40:00,
2013-10-18 23:42:00,76.0,70.8,29.95,ESE,103,0.0,0.0,84,0.00,,---,0.00,VWS V14.01,2013-10-19 03:42:00,
2013-10-18 23:47:00,75.8,70.6,29.95,ESE,118,0.0,0.0,84,0.00,,---,0.00,VWS V14.01,2013-10-19 03:47:00,
2013-10-18 23:50:00,75.8,71.0,29.95,ESE,118,0.0,0.0,85,0.00,,---,0.00,VWS V14.01,2013-10-19 03:50:00,
2013-10-18 23:52:00,75.6,70.8,29.95,ESE,118,0.0,0.0,85,0.00,,---,0.00,VWS V14.01,2013-10-19 03:52:00,
2013-10-18 23:57:00,75.5,70.7,29.95,ESE,118,0.0,0.0,85,0.00,,---,0.00,VWS V14.01,2013-10-19 03:57:00,